Terminal Aerodrome Forecast
Issued by NWS Medford, OR

Home | Current Version | Previous Version | Text Only | Print | Product List | Glossary On
Versions: 1 2 3 4 5 6 7 8 9 10 11 12 13 14 15 16
288
FTUS46 KMFR 300640 AAA
TAFMFR
TAF AMD
KMFR 300640Z 3007/3106 30010KT P6SM FEW070 SCT150 BKN250
     FM300800 VRB04KT P6SM SCT050 BKN150 BKN250
     FM302300 30010G17KT P6SM SKC
     FM310400 VRB04KT P6SM SKC=

USA.gov is the U.S. government's official web portal to all federal, state and local government web resources and services.